Change the Weather History Date:

Tuesday, October 29, 2013

  Actual Average (KTAD) Record (KTAD)
Temperature  
Mean Temperature 37 °F 48 °F  
Max Temperature 44 °F 64 °F 85 °F (1950)
Min Temperature 30 °F 32 °F 7 °F (1993)
Degree Days  
Heating Degree Days 28 17  
Month to date heating degree days 358  
Since 1 July heating degree days 468  
Cooling Degree Days 0 0  
Month to date cooling degree days 0  
Year to date cooling degree days 716  
Moisture  
Dew Point 21 °F    
Average Humidity 57    
Maximum Humidity 100    
Minimum Humidity 31    
Precipitation  
Precipitation 0.00 in 0.03 in 0.78 in (1969)
Month to date precipitation 0.84  
Year to date precipitation 12.54  
Sea Level Pressure  
Sea Level Pressure 30.05 in    
Wind  
Wind Speed 15 mph (SW)    
Max Wind Speed 22 mph    
Max Gust Speed 48 mph    
Visibility 9 miles    
Events Snow    
T = Trace of Precipitation, MM = Missing Value Source: NWS Daily Summary

Daily Weather History Graph

Daily Weather History Graph

Search for Another Location

Airport or City:

Trip Planner

Search our weather history database for the weather conditions in past years. The results will help you decide how hot, cold, wet, or windy it might be!

Date:

Astronomy

Oct. 29, 2013 Rise Set
Actual Time 7:22 AM MDT 6:05 PM MDT
Civil Twilight 6:55 AM MDT 6:32 PM MDT
Nautical Twilight 6:25 AM MDT 7:03 PM MDT
Astronomical Twilight 5:54 AM MDT 7:33 PM MDT
Moon 2:21 AM MDT (10/29) 3:15 PM MDT (10/29)
Length of Visible Light 11h 36m
Length of Day
10h 42m
Waning Crescent, 24% of the Moon is Illuminated
Oct 29
Waning Crescent
Nov 3
New
Nov 9
First Quarter
Nov 17
Full
Nov 25
Last Quarter

Hourly Weather History & Observations

Time (MDT) Temp. Windchill Dew Point Humidity Pressure Visibility Wind Dir Wind Speed Gust Speed Precip Events Conditions
12:14 AM 33.8 °F 25.3 °F 21.2 °F 60% 30.10 in 10.0 mi SW 11.5 mph 19.6 mph N/A   Clear
12:34 AM 33.8 °F 25.3 °F 21.2 °F 60% 30.10 in 10.0 mi SW 11.5 mph 18.4 mph N/A   Clear
12:54 AM 33.8 °F 25.8 °F 23.0 °F 65% 30.10 in 10.0 mi SW 10.4 mph 21.9 mph N/A   Clear
1:13 AM 33.8 °F 24.3 °F 23.0 °F 65% 30.10 in 10.0 mi SW 13.8 mph 21.9 mph N/A   Clear
1:34 AM 33.8 °F 24.8 °F 23.0 °F 65% 30.10 in 10.0 mi SW 12.7 mph 24.2 mph N/A   Clear
1:54 AM 33.8 °F 23.5 °F 21.2 °F 60% 30.09 in 10.0 mi SW 16.1 mph 24.2 mph N/A   Clear
2:14 AM 33.8 °F 23.2 °F 21.2 °F 60% 30.08 in 10.0 mi SW 17.3 mph 26.5 mph N/A   Clear
2:34 AM 33.8 °F 22.5 °F 21.2 °F 60% 30.08 in 10.0 mi SW 19.6 mph 29.9 mph N/A   Clear
2:54 AM 33.8 °F 22.8 °F 21.2 °F 60% 30.07 in 10.0 mi SW 18.4 mph 29.9 mph N/A   Clear
3:14 AM 33.8 °F 22.8 °F 21.2 °F 60% 30.07 in 10.0 mi SW 18.4 mph 29.9 mph N/A   Clear
3:34 AM 33.8 °F 22.5 °F 21.2 °F 60% 30.07 in 10.0 mi SW 19.6 mph 28.8 mph N/A   Clear
3:51 AM 33.8 °F 22.8 °F 19.4 °F 56% 30.07 in 10.0 mi SW 18.4 mph 31.1 mph N/A   Clear
4:14 AM 33.8 °F 23.2 °F 19.4 °F 56% 30.06 in 10.0 mi SW 17.3 mph 29.9 mph N/A   Clear
4:34 AM 33.8 °F 23.2 °F 19.4 °F 56% 30.07 in 10.0 mi SW 17.3 mph 27.6 mph N/A   Clear
4:54 AM 33.8 °F 23.2 °F 21.2 °F 60% 30.06 in 10.0 mi SW 17.3 mph 29.9 mph N/A   Clear
5:13 AM 33.8 °F 22.8 °F 21.2 °F 60% 30.06 in 10.0 mi SW 18.4 mph 31.1 mph N/A   Clear
5:34 AM 33.8 °F 22.8 °F 19.4 °F 56% 30.06 in 10.0 mi SW 18.4 mph 29.9 mph N/A   Clear
5:53 AM 33.8 °F 22.5 °F 19.4 °F 56% 30.06 in 10.0 mi SW 19.6 mph 29.9 mph N/A   Clear
6:14 AM 33.8 °F 22.2 °F 19.4 °F 56% 30.06 in 10.0 mi SW 20.7 mph 33.4 mph N/A   Clear
6:33 AM 32.0 °F 19.8 °F 17.6 °F 55% 30.06 in 10.0 mi SW 20.7 mph 33.4 mph N/A   Clear
6:54 AM 32.0 °F 19.5 °F 19.4 °F 60% 30.06 in 10.0 mi SW 21.9 mph 32.2 mph N/A   Clear
7:14 AM 32.0 °F 19.8 °F 17.6 °F 55% 30.06 in 10.0 mi SW 20.7 mph 31.1 mph N/A   Clear
7:33 AM 32.0 °F 20.5 °F 15.8 °F 51% 30.06 in 10.0 mi SW 18.4 mph 36.8 mph N/A   Clear
7:54 AM 32.0 °F 20.5 °F 14.0 °F 48% 30.06 in 10.0 mi SW 18.4 mph 34.5 mph N/A   Clear
8:14 AM 33.8 °F 22.2 °F 15.8 °F 48% 30.06 in 10.0 mi SW 20.7 mph 34.5 mph N/A   Clear
8:34 AM 33.8 °F 22.8 °F 17.6 °F 52% 30.07 in 10.0 mi SW 18.4 mph 34.5 mph N/A   Clear
8:53 AM 33.8 °F 22.8 °F 17.6 °F 52% 30.07 in 10.0 mi SW 18.4 mph 32.2 mph N/A   Clear
9:14 AM 33.8 °F 22.2 °F 17.6 °F 52% 30.06 in 10.0 mi SW 20.7 mph 48.3 mph N/A   Clear
9:34 AM 33.8 °F 23.5 °F 17.6 °F 52% 30.07 in 10.0 mi SW 16.1 mph 33.4 mph N/A   Clear
9:54 AM 33.8 °F 23.9 °F 19.4 °F 56% 30.08 in 10.0 mi WSW 15.0 mph 31.1 mph N/A   Clear
10:14 AM 37.4 °F 27.8 °F 21.2 °F 52% 30.07 in 10.0 mi SW 17.3 mph 34.5 mph N/A   Clear
10:34 AM 39.2 °F 30.5 °F 21.2 °F 49% 30.07 in 10.0 mi SW 16.1 mph 34.5 mph N/A   Clear
10:53 AM 39.2 °F 30.5 °F 19.4 °F 45% 30.08 in 10.0 mi SW 16.1 mph 38.0 mph N/A   Clear
11:14 AM 39.2 °F 30.2 °F 19.4 °F 45% 30.07 in 10.0 mi SW 17.3 mph 41.4 mph N/A   Clear
11:33 AM 41.0 °F 32.8 °F 19.4 °F 42% 30.07 in 10.0 mi SW 16.1 mph 40.3 mph N/A   Scattered Clouds
11:54 AM 41.0 °F 32.5 °F 19.4 °F 42% 30.07 in 10.0 mi SW 17.3 mph 34.5 mph N/A   Mostly Cloudy
12:14 PM 41.0 °F 34.3 °F 17.6 °F 39% 30.07 in - WSW 11.5 mph - N/A   Unknown
12:33 PM 42.8 °F 34.8 °F 15.8 °F 34% 30.06 in 10.0 mi SW 17.3 mph 39.1 mph N/A   Scattered Clouds
12:54 PM 41.0 °F 32.2 °F 15.8 °F 36% 30.05 in 10.0 mi SW 18.4 mph 31.1 mph N/A   Scattered Clouds
1:14 PM 41.0 °F 33.5 °F 15.8 °F 36% 30.05 in 10.0 mi SW 13.8 mph 31.1 mph N/A   Scattered Clouds
1:34 PM 42.8 °F 34.0 °F 15.8 °F 34% 30.03 in 10.0 mi SW 20.7 mph 44.9 mph N/A   Clear
1:53 PM 42.8 °F 34.8 °F 14.0 °F 31% 30.03 in 10.0 mi SW 17.3 mph 41.4 mph N/A   Clear
2:14 PM 44.6 °F 38.4 °F 17.6 °F 34% 30.03 in 10.0 mi SW 12.7 mph 31.1 mph N/A   Clear
2:34 PM 44.6 °F 38.1 °F 17.6 °F 34% 30.03 in 10.0 mi WSW 13.8 mph 21.9 mph N/A   Scattered Clouds
2:54 PM 41.0 °F 33.9 °F 17.6 °F 39% 30.03 in 10.0 mi SW 12.7 mph 25.3 mph N/A   Mostly Cloudy
3:14 PM 42.8 °F 36.6 °F 15.8 °F 34% 30.03 in 10.0 mi SW 11.5 mph 29.9 mph N/A   Scattered Clouds
3:34 PM 39.2 °F 33.0 °F 15.8 °F 39% 30.03 in 10.0 mi WSW 9.2 mph 19.6 mph N/A   Mostly Cloudy
3:54 PM 41.0 °F 32.8 °F 15.8 °F 36% 30.03 in 10.0 mi SW 16.1 mph 32.2 mph N/A   Overcast
4:13 PM 41.0 °F 32.2 °F 17.6 °F 39% 30.03 in 10.0 mi SW 18.4 mph 34.5 mph N/A   Overcast
4:34 PM 42.8 °F 37.0 °F 17.6 °F 36% 30.03 in 10.0 mi SW 10.4 mph 23.0 mph N/A   Mostly Cloudy
4:54 PM 41.0 °F 33.1 °F 17.6 °F 39% 30.03 in 10.0 mi SW 15.0 mph 33.4 mph N/A   Scattered Clouds
5:13 PM 41.0 °F 33.5 °F 17.6 °F 39% 30.03 in 10.0 mi SSW 13.8 mph 20.7 mph N/A   Scattered Clouds
5:34 PM 39.2 °F 33.0 °F 17.6 °F 42% 30.02 in 10.0 mi SW 9.2 mph 23.0 mph N/A   Mostly Cloudy
5:53 PM 39.2 °F 33.0 °F 17.6 °F 42% 30.03 in 10.0 mi SW 9.2 mph 19.6 mph N/A   Scattered Clouds
6:14 PM 37.4 °F 29.3 °F 19.4 °F 48% 30.02 in 10.0 mi SSW 12.7 mph 21.9 mph N/A   Scattered Clouds
6:34 PM 37.4 °F 29.8 °F 19.4 °F 48% 30.02 in 10.0 mi SW 11.5 mph 26.5 mph N/A   Clear
6:54 PM 37.4 °F 32.1 °F 19.4 °F 48% 30.03 in 10.0 mi SSW 6.9 mph 24.2 mph N/A   Clear
7:14 PM 37.4 °F 29.8 °F 19.4 °F 48% 30.02 in 10.0 mi SSW 11.5 mph 20.7 mph N/A   Scattered Clouds
7:34 PM 39.2 °F 32.0 °F 19.4 °F 45% 30.01 in 10.0 mi SSW 11.5 mph 25.3 mph N/A   Mostly Cloudy
7:54 PM 35.6 °F 29.2 °F 23.0 °F 60% 30.03 in 10.0 mi WSW 8.1 mph - N/A   Overcast
8:13 PM 33.8 °F 26.4 °F 26.6 °F 75% 30.03 in 10.0 mi SW 9.2 mph - N/A   Overcast
8:34 PM 32.0 °F 24.8 °F 28.4 °F 87% 30.04 in 1.0 mi SW 8.1 mph - N/A Snow Light Snow
8:51 PM 32.0 °F 27.5 °F 30.2 °F 93% 30.03 in 0.8 mi WSW 4.6 mph - N/A Snow Snow
9:13 PM 30.2 °F 26.7 °F 30.2 °F 100% 30.02 in 0.5 mi WSW 3.5 mph - N/A Snow Snow
9:34 PM 32.0 °F 28.7 °F 30.2 °F 93% 30.01 in 0.8 mi WSW 3.5 mph - N/A Snow Snow
9:54 PM 30.2 °F 23.4 °F 30.2 °F 100% 30.01 in 0.5 mi SW 6.9 mph - N/A Snow Snow
10:13 PM 30.2 °F 22.6 °F 30.2 °F 100% 30.02 in 0.8 mi WSW 8.1 mph - N/A Snow Snow
10:34 PM 30.2 °F 20.8 °F 30.2 °F 100% 30.01 in 0.5 mi SW 11.5 mph 24.2 mph N/A Snow Heavy Snow
10:54 PM 30.2 °F 18.1 °F 30.2 °F 100% 30.01 in 0.8 mi SW 18.4 mph 32.2 mph N/A Snow Snow
11:14 PM 30.2 °F 20.8 °F 30.2 °F 100% 30.00 in 0.5 mi SW 11.5 mph 28.8 mph N/A Snow Heavy Snow
11:33 PM 30.2 °F - 30.2 °F 100% 30.00 in 0.2 mi North - - N/A Snow Heavy Snow
11:53 PM 30.2 °F 17.8 °F 30.2 °F 100% 29.98 in 1.2 mi SW 19.6 mph 31.1 mph N/A Snow Light Snow